createdAt,value
2022-08-26T00:01:24.272Z,4.43
2022-08-26T00:03:56.571Z,3.60
2022-08-26T00:06:23.572Z,3.30
2022-08-26T00:08:50.147Z,5.68
2022-08-26T00:11:26.549Z,4.22
2022-08-26T00:13:54.718Z,3.65
2022-08-26T00:16:22.616Z,4.00
2022-08-26T00:18:50.034Z,3.70
2022-08-26T00:21:16.649Z,3.90
2022-08-26T00:23:43.324Z,6.15
2022-08-26T00:26:11.065Z,4.28
2022-08-26T00:28:38.438Z,3.30
2022-08-26T00:31:07.615Z,3.50
2022-08-26T00:33:38.518Z,3.92
2022-08-26T00:36:05.573Z,3.50
2022-08-26T00:38:32.689Z,4.03
2022-08-26T00:40:59.352Z,3.60
2022-08-26T00:43:27.329Z,3.45
2022-08-26T00:46:13.251Z,3.85
2022-08-26T00:48:42.651Z,3.83
2022-08-26T00:51:22.997Z,3.90
2022-08-26T00:53:57.706Z,3.67
2022-08-26T00:56:34.534Z,4.28
2022-08-26T00:59:06.835Z,4.03
2022-08-26T01:01:34.198Z,3.83
2022-08-26T01:04:01.175Z,3.85
2022-08-26T01:06:28.573Z,3.28
2022-08-26T01:08:56.118Z,3.70
2022-08-26T01:11:24.119Z,3.63
2022-08-26T01:13:57.478Z,3.75
2022-08-26T01:16:25.750Z,3.70
2022-08-26T01:18:59.800Z,4.47
2022-08-26T01:21:36.364Z,3.83
2022-08-26T01:24:08.849Z,4.00
2022-08-26T01:29:12.775Z,3.75
2022-08-26T01:31:44.168Z,3.33
2022-08-26T01:34:19.711Z,4.07
2022-08-26T01:36:51.290Z,4.10
2022-08-26T01:39:18.590Z,3.67
2022-08-26T01:41:46.252Z,3.47
2022-08-26T01:44:20.002Z,4.03
2022-08-26T01:46:50.735Z,4.03
2022-08-26T01:49:18.849Z,3.85
2022-08-26T01:51:48.036Z,3.97
2022-08-26T01:54:16.072Z,3.60
2022-08-26T01:56:43.004Z,2.92
2022-08-26T01:59:15.073Z,4.45
2022-08-26T02:01:41.816Z,3.80
2022-08-26T02:04:15.242Z,3.47
2022-08-26T02:06:42.801Z,4.47
2022-08-26T02:09:10.329Z,4.05
2022-08-26T02:11:37.007Z,3.55
2022-08-26T02:14:09.946Z,3.75
2022-08-26T02:16:42.423Z,4.38
2022-08-26T02:19:17.134Z,4.25
2022-08-26T02:21:45.954Z,4.15
2022-08-26T02:24:27.293Z,3.50
2022-08-26T02:26:56.187Z,3.65
2022-08-26T02:29:37.460Z,3.70
2022-08-26T02:32:08.046Z,3.58
2022-08-26T02:34:35.092Z,4.18
2022-08-26T02:37:05.725Z,3.92
2022-08-26T02:39:33.052Z,4.18
2022-08-26T02:42:00.011Z,3.58
2022-08-26T02:44:27.548Z,4.32
2022-08-26T02:46:54.817Z,4.10
2022-08-26T02:49:23.755Z,4.30
2022-08-26T02:51:50.948Z,3.80
2022-08-26T02:54:21.331Z,4.03
2022-08-26T02:56:48.788Z,3.95
2022-08-26T02:59:15.497Z,4.47
2022-08-26T03:01:42.647Z,3.60
2022-08-26T03:04:11.793Z,3.70
2022-08-26T03:06:39.030Z,4.28
2022-08-26T03:09:07.668Z,4.10
2022-08-26T03:11:34.441Z,4.20
2022-08-26T03:14:03.781Z,4.32
2022-08-26T03:16:34.600Z,4.30
2022-08-26T03:19:02.796Z,4.43
2022-08-26T03:21:30.221Z,4.53
2022-08-26T03:23:58.713Z,5.57
2022-08-26T03:26:26.286Z,3.92
2022-08-26T03:29:11.704Z,3.42
2022-08-26T03:31:38.374Z,3.85
2022-08-26T03:34:05.045Z,4.30
2022-08-26T03:36:32.072Z,3.80
2022-08-26T03:39:01.945Z,3.63
2022-08-26T03:41:29.192Z,3.97
2022-08-26T03:43:59.672Z,3.92
2022-08-26T03:46:28.314Z,4.10
2022-08-26T03:48:55.180Z,3.83
2022-08-26T03:51:21.713Z,4.03
2022-08-26T03:53:48.369Z,3.88
2022-08-26T03:56:15.300Z,3.63
2022-08-26T03:58:42.733Z,4.50
2022-08-26T04:01:10.942Z,3.65
2022-08-26T04:03:56.609Z,3.63
2022-08-26T04:06:30.947Z,4.25
2022-08-26T04:09:00.244Z,4.75
2022-08-26T04:11:34.206Z,4.22
2022-08-26T04:14:03.670Z,4.43
2022-08-26T04:16:30.645Z,4.03
2022-08-26T04:18:58.357Z,4.18
2022-08-26T04:21:25.720Z,3.60
2022-08-26T04:23:54.360Z,4.03
2022-08-26T04:26:22.555Z,3.92
2022-08-26T04:28:53.198Z,4.57
2022-08-26T04:31:20.036Z,4.07
2022-08-26T04:33:50.826Z,3.45
2022-08-26T04:36:20.105Z,3.80
2022-08-26T04:38:47.348Z,4.38
2022-08-26T04:41:15.336Z,4.18
2022-08-26T04:43:43.871Z,4.30
2022-08-26T04:46:13.083Z,3.85
2022-08-26T04:48:41.358Z,4.35
2022-08-26T04:51:09.604Z,3.50
2022-08-26T04:53:37.367Z,4.35
2022-08-26T04:56:04.781Z,4.57
2022-08-26T04:58:31.948Z,4.50
2022-08-26T05:00:58.676Z,4.20
2022-08-26T05:03:30.246Z,4.43
2022-08-26T05:05:57.966Z,3.83
2022-08-26T05:08:25.237Z,3.33
2022-08-26T05:10:56.377Z,3.97
2022-08-26T05:13:27.385Z,4.53
2022-08-26T05:15:55.693Z,3.67
2022-08-26T05:18:30.360Z,4.88
2022-08-26T05:20:57.506Z,4.80
2022-08-26T05:23:24.527Z,3.95
2022-08-26T05:25:58.379Z,4.25
2022-08-26T05:28:28.353Z,4.25
2022-08-26T05:30:55.948Z,3.83
2022-08-26T05:33:22.997Z,4.82
2022-08-26T05:35:49.831Z,4.90
2022-08-26T05:38:19.643Z,4.43
2022-08-26T05:40:52.930Z,5.13
2022-08-26T05:43:20.580Z,4.57
2022-08-26T05:45:49.498Z,4.95
2022-08-26T05:50:47.714Z,4.60
2022-08-26T05:53:17.584Z,5.18
2022-08-26T05:55:47.968Z,5.03
2022-08-26T05:58:15.350Z,5.38
2022-08-26T06:00:44.658Z,4.30
2022-08-26T06:03:11.552Z,4.85
2022-08-26T06:05:39.906Z,5.25
2022-08-26T06:08:19.322Z,4.70
2022-08-26T06:10:52.721Z,5.10
2022-08-26T06:13:23.844Z,5.32
2022-08-26T06:15:51.790Z,5.82
2022-08-26T06:18:22.004Z,4.90
2022-08-26T06:20:57.383Z,5.25
2022-08-26T06:23:44.881Z,4.40
2022-08-26T06:26:12.340Z,5.07
2022-08-26T06:28:39.110Z,5.20
2022-08-26T06:31:06.137Z,5.97
2022-08-26T06:33:33.557Z,6.28
2022-08-26T06:36:01.237Z,5.40
2022-08-26T06:38:28.550Z,5.70
2022-08-26T06:40:55.155Z,5.88
2022-08-26T06:43:25.284Z,6.43
2022-08-26T06:45:59.536Z,7.65
2022-08-26T06:48:26.122Z,6.85
2022-08-26T06:51:02.407Z,6.20
2022-08-26T06:53:28.966Z,7.18
2022-08-26T06:55:55.671Z,6.43
2022-08-26T06:58:23.332Z,6.63
2022-08-26T07:00:51.137Z,6.45
2022-08-26T07:03:18.348Z,5.28
2022-08-26T07:05:44.958Z,5.47
2022-08-26T07:08:12.065Z,6.95
2022-08-26T07:10:38.851Z,8.70
2022-08-26T07:13:06.020Z,7.30
2022-08-26T07:18:03.118Z,6.60
2022-08-26T07:20:29.748Z,7.82
2022-08-26T07:22:58.880Z,8.48
2022-08-26T07:27:54.183Z,14.02
2022-08-26T07:32:48.341Z,13.70
2022-08-26T07:35:15.092Z,11.93
2022-08-26T07:37:42.839Z,9.07
2022-08-26T07:40:10.287Z,9.60
2022-08-26T07:42:36.870Z,11.98
2022-08-26T07:45:04.189Z,11.70
2022-08-26T07:47:31.063Z,10.80
2022-08-26T07:49:58.484Z,8.10
2022-08-26T07:52:28.199Z,6.13
2022-08-26T07:55:00.651Z,6.82
2022-08-26T07:57:29.006Z,6.70
2022-08-26T07:59:56.661Z,7.20
2022-08-26T08:02:24.878Z,6.25
2022-08-26T08:04:52.348Z,7.77
2022-08-26T08:07:19.269Z,15.13
2022-08-26T08:09:49.440Z,15.50
2022-08-26T08:12:16.923Z,15.85
2022-08-26T08:14:46.773Z,15.57
2022-08-26T08:17:15.788Z,9.75
2022-08-26T08:19:42.682Z,7.32
2022-08-26T08:22:17.798Z,10.13
2022-08-26T08:24:49.951Z,11.55
2022-08-26T08:27:23.506Z,10.82
2022-08-26T08:29:50.940Z,10.98
2022-08-26T08:32:18.760Z,7.53
2022-08-26T08:34:45.564Z,9.32
2022-08-26T08:37:12.713Z,10.10
2022-08-26T08:39:39.406Z,9.73
2022-08-26T08:42:19.829Z,11.27
2022-08-26T08:44:52.783Z,9.93
2022-08-26T08:47:34.225Z,10.55
2022-08-26T08:50:17.727Z,8.32
2022-08-26T08:52:49.157Z,7.22
2022-08-26T08:55:18.272Z,6.75
2022-08-26T08:58:02.761Z,6.10
2022-08-26T09:00:39.954Z,5.35
2022-08-26T09:03:36.151Z,4.70
2022-08-26T09:06:04.012Z,3.50
2022-08-26T09:08:35.823Z,3.40
2022-08-26T09:11:04.426Z,3.28
2022-08-26T09:13:31.788Z,2.80
2022-08-26T09:15:58.494Z,2.95
2022-08-26T09:18:34.112Z,3.33
2022-08-26T09:21:03.937Z,3.05
2022-08-26T09:23:32.263Z,2.92
2022-08-26T09:26:02.516Z,2.72
2022-08-26T09:28:31.036Z,3.08
2022-08-26T09:31:20.108Z,3.10
2022-08-26T09:33:47.813Z,3.60
2022-08-26T09:36:41.511Z,3.05
2022-08-26T09:39:37.795Z,2.58
2022-08-26T09:42:11.762Z,3.60
2022-08-26T09:45:06.531Z,3.35
2022-08-26T09:47:48.112Z,2.45
2022-08-26T09:50:29.400Z,2.92
2022-08-26T09:53:09.990Z,3.88
2022-08-26T09:55:42.112Z,3.15
2022-08-26T09:58:34.093Z,2.78
2022-08-26T10:01:04.079Z,2.97
2022-08-26T10:03:33.348Z,4.03
2022-08-26T10:06:00.083Z,3.20
2022-08-26T10:08:41.337Z,2.63
2022-08-26T10:11:30.937Z,2.88
2022-08-26T10:14:21.006Z,3.40
2022-08-26T10:17:03.349Z,2.90
2022-08-26T10:19:56.568Z,2.85
2022-08-26T10:22:38.773Z,3.90
2022-08-26T10:25:09.951Z,2.72
2022-08-26T10:27:51.242Z,2.78
2022-08-26T10:30:22.966Z,3.00
2022-08-26T10:32:56.014Z,2.33
2022-08-26T10:35:23.642Z,3.33
2022-08-26T10:38:00.484Z,2.80
2022-08-26T10:40:51.159Z,2.47
2022-08-26T10:43:23.588Z,2.67
2022-08-26T10:45:57.279Z,2.83
2022-08-26T10:48:35.613Z,2.75
2022-08-26T10:53:46.733Z,2.72
2022-08-26T10:56:30.415Z,2.28
2022-08-26T10:59:48.038Z,2.70
2022-08-26T11:05:05.503Z,2.42
2022-08-26T11:07:32.077Z,2.53
2022-08-26T11:10:22.909Z,2.63
2022-08-26T11:12:58.441Z,2.70
2022-08-26T11:15:25.091Z,2.58
2022-08-26T11:18:02.407Z,2.80
2022-08-26T11:20:45.951Z,2.25
2022-08-26T11:23:13.628Z,3.42
2022-08-26T11:25:59.027Z,2.75
2022-08-26T11:28:34.654Z,2.50
2022-08-26T11:31:02.042Z,2.35
2022-08-26T11:33:51.682Z,2.70
2022-08-26T11:36:38.656Z,2.50
2022-08-26T11:39:28.909Z,3.60
2022-08-26T11:42:00.088Z,2.70
2022-08-26T11:44:37.315Z,2.85
2022-08-26T11:47:05.537Z,2.83
2022-08-26T11:49:38.453Z,2.30
2022-08-26T11:52:22.113Z,2.97
2022-08-26T11:55:09.795Z,2.25
2022-08-26T11:57:44.872Z,2.77
2022-08-26T12:00:21.112Z,2.72
2022-08-26T12:02:50.260Z,3.67
2022-08-26T12:05:29.439Z,2.63
2022-08-26T12:08:02.447Z,2.78
2022-08-26T12:10:33.835Z,2.85
2022-08-26T12:13:02.522Z,2.53
2022-08-26T12:18:00.463Z,2.95
2022-08-26T12:20:54.337Z,2.85
2022-08-26T12:23:46.790Z,2.47
2022-08-26T12:26:28.986Z,3.00
2022-08-26T12:29:26.774Z,2.97
2022-08-26T12:32:09.121Z,2.40
2022-08-26T12:34:36.274Z,3.40
2022-08-26T12:37:03.439Z,2.80
2022-08-26T12:39:36.726Z,3.08
2022-08-26T12:42:20.974Z,3.10
2022-08-26T12:44:54.010Z,3.30
2022-08-26T12:47:44.361Z,2.80
2022-08-26T12:50:18.182Z,2.55
2022-08-26T12:52:54.018Z,2.97
2022-08-26T12:55:35.457Z,4.03
2022-08-26T12:58:26.240Z,3.05
2022-08-26T13:00:54.389Z,2.50
2022-08-26T13:03:43.442Z,2.65
2022-08-26T13:06:29.935Z,3.47
2022-08-26T13:09:00.517Z,2.53
2022-08-26T13:11:31.609Z,3.25
2022-08-26T13:14:07.169Z,3.15
2022-08-26T13:16:35.012Z,3.38
2022-08-26T13:19:05.250Z,3.30
2022-08-26T13:21:37.442Z,2.97
2022-08-26T13:24:14.073Z,3.40
2022-08-26T13:26:43.204Z,3.58
2022-08-26T13:29:10.683Z,3.05
2022-08-26T13:31:39.891Z,3.00
2022-08-26T13:34:08.033Z,9.27
2022-08-26T13:36:35.999Z,5.45
2022-08-26T13:39:03.223Z,3.63
2022-08-26T13:41:29.946Z,4.15
2022-08-26T13:43:57.006Z,3.20
2022-08-26T13:46:27.270Z,3.35
2022-08-26T13:48:54.629Z,3.42
2022-08-26T13:51:22.899Z,3.60
2022-08-26T13:53:50.394Z,3.38
2022-08-26T13:56:18.827Z,3.10
2022-08-26T13:58:46.336Z,3.92
2022-08-26T14:01:14.211Z,4.13
2022-08-26T14:03:41.010Z,3.10
2022-08-26T14:06:07.824Z,3.53
2022-08-26T14:08:35.220Z,3.65
2022-08-26T14:11:01.778Z,3.78
2022-08-26T14:13:28.435Z,3.30
2022-08-26T14:15:56.602Z,3.33
2022-08-26T14:18:29.553Z,3.97
2022-08-26T14:20:56.172Z,3.30
2022-08-26T14:23:23.046Z,3.55
2022-08-26T14:25:49.769Z,3.60
2022-08-26T14:28:16.452Z,4.57
2022-08-26T14:30:53.475Z,3.90
2022-08-26T14:33:24.639Z,3.58
2022-08-26T14:35:51.714Z,4.13
2022-08-26T14:38:18.504Z,3.08
2022-08-26T14:40:45.454Z,3.67
2022-08-26T14:43:15.373Z,3.58
2022-08-26T14:45:45.214Z,4.07
2022-08-26T14:48:11.923Z,4.13
2022-08-26T14:50:38.767Z,3.65
2022-08-26T14:53:23.927Z,3.53
2022-08-26T14:55:50.797Z,3.08
2022-08-26T14:58:17.371Z,3.25
2022-08-26T15:00:43.964Z,3.25
2022-08-26T15:03:10.768Z,3.75
2022-08-26T15:05:38.011Z,3.30
2022-08-26T15:08:10.366Z,3.55
2022-08-26T15:10:37.537Z,4.15
2022-08-26T15:13:04.512Z,3.33
2022-08-26T15:15:31.189Z,3.78
2022-08-26T15:17:57.810Z,3.60
2022-08-26T15:20:24.573Z,3.85
2022-08-26T15:22:51.167Z,3.35
2022-08-26T15:25:18.173Z,3.47
2022-08-26T15:27:44.977Z,3.13
2022-08-26T15:30:12.847Z,3.72
2022-08-26T15:32:39.392Z,3.17
2022-08-26T15:35:09.088Z,4.35
2022-08-26T15:37:36.306Z,4.07
2022-08-26T15:40:04.819Z,3.38
2022-08-26T15:42:31.766Z,3.05
2022-08-26T15:44:58.361Z,3.17
2022-08-26T15:47:25.156Z,3.25
2022-08-26T15:49:51.746Z,3.50
2022-08-26T15:52:18.486Z,3.67
2022-08-26T15:54:45.128Z,2.92
2022-08-26T15:57:13.625Z,3.70
2022-08-26T15:59:41.906Z,3.05
2022-08-26T16:02:09.579Z,3.60
2022-08-26T16:04:36.309Z,2.92
2022-08-26T16:07:04.266Z,3.00
2022-08-26T16:09:30.859Z,3.38
2022-08-26T16:11:58.112Z,4.20
2022-08-26T16:14:25.616Z,3.72
2022-08-26T16:16:52.396Z,3.88
2022-08-26T16:19:19.373Z,3.22
2022-08-26T16:21:46.144Z,3.25
2022-08-26T16:24:13.249Z,3.78
2022-08-26T16:26:42.199Z,3.35
2022-08-26T16:29:12.323Z,3.83
2022-08-26T16:31:39.708Z,3.78
2022-08-26T16:34:07.625Z,3.47
2022-08-26T16:36:35.757Z,3.73
2022-08-26T16:39:03.516Z,3.10
2022-08-26T16:41:31.717Z,3.30
2022-08-26T16:43:59.149Z,3.22
2022-08-26T16:46:26.620Z,4.03
2022-08-26T16:48:55.357Z,3.88
2022-08-26T16:53:51.610Z,4.10
2022-08-26T16:56:21.676Z,4.95
2022-08-26T16:58:48.435Z,4.35
2022-08-26T17:01:16.542Z,7.53
2022-08-26T17:03:43.280Z,4.55
2022-08-26T17:06:10.440Z,2.90
2022-08-26T17:08:38.874Z,4.13
2022-08-26T17:11:05.989Z,3.83
2022-08-26T17:13:35.753Z,3.60
2022-08-26T17:16:05.057Z,4.03
2022-08-26T17:18:33.440Z,4.30
2022-08-26T17:21:05.813Z,4.40
2022-08-26T17:23:32.480Z,5.32
2022-08-26T17:25:59.396Z,6.15
2022-08-26T17:28:25.979Z,5.13
2022-08-26T17:30:52.620Z,4.50
2022-08-26T17:33:22.058Z,4.53
2022-08-26T17:35:51.397Z,3.45
2022-08-26T17:38:17.951Z,3.60
2022-08-26T17:40:44.507Z,3.97
2022-08-26T17:43:12.433Z,4.38
2022-08-26T17:45:40.417Z,4.38
2022-08-26T17:48:07.672Z,3.20
2022-08-26T17:50:34.351Z,4.38
2022-08-26T17:53:00.932Z,3.85
2022-08-26T17:55:27.527Z,3.58
2022-08-26T17:57:54.129Z,4.43
2022-08-26T18:00:26.405Z,3.60
2022-08-26T18:02:54.292Z,3.65
2022-08-26T18:05:22.320Z,4.13
2022-08-26T18:07:48.990Z,3.50
2022-08-26T18:10:18.288Z,3.97
2022-08-26T18:12:45.543Z,3.35
2022-08-26T18:15:13.708Z,3.40
2022-08-26T18:17:40.591Z,3.60
2022-08-26T18:20:13.550Z,3.40
2022-08-26T18:22:40.457Z,3.58
2022-08-26T18:25:08.213Z,3.63
2022-08-26T18:27:36.171Z,3.20
2022-08-26T18:30:06.365Z,2.95
2022-08-26T18:32:32.981Z,3.20
2022-08-26T18:35:01.592Z,4.15
2022-08-26T18:37:31.022Z,3.78
2022-08-26T18:39:59.559Z,3.35
2022-08-26T18:42:27.215Z,3.40
2022-08-26T18:44:54.030Z,3.60
2022-08-26T18:47:20.873Z,3.60
2022-08-26T18:49:48.600Z,3.65
2022-08-26T18:52:15.289Z,3.55
2022-08-26T18:54:41.962Z,4.13
2022-08-26T18:57:08.534Z,3.72
2022-08-26T18:59:35.146Z,4.30
2022-08-26T19:02:01.793Z,4.20
2022-08-26T19:04:28.461Z,3.85
2022-08-26T19:06:55.226Z,2.95
2022-08-26T19:09:21.986Z,3.97
2022-08-26T19:11:50.075Z,4.35
2022-08-26T19:14:17.085Z,4.28
2022-08-26T19:16:46.462Z,3.90
2022-08-26T19:19:14.761Z,4.32
2022-08-26T19:21:41.620Z,4.07
2022-08-26T19:24:15.256Z,3.53
2022-08-26T19:26:46.797Z,3.50
2022-08-26T19:29:13.819Z,3.88
2022-08-26T19:31:41.455Z,4.28
2022-08-26T19:34:10.700Z,3.55
2022-08-26T19:36:37.959Z,3.95
2022-08-26T19:39:08.500Z,4.03
2022-08-26T19:41:38.007Z,4.95
2022-08-26T19:44:34.380Z,4.00
2022-08-26T19:47:05.142Z,4.95
2022-08-26T19:49:32.023Z,3.90
2022-08-26T19:51:58.993Z,4.35
2022-08-26T19:54:26.013Z,4.40
2022-08-26T19:56:52.762Z,3.45
2022-08-26T19:59:19.353Z,5.28
2022-08-26T20:01:46.208Z,4.65
2022-08-26T20:04:27.521Z,4.32
2022-08-26T20:06:57.699Z,4.78
2022-08-26T20:09:31.166Z,3.90
2022-08-26T20:11:57.802Z,3.95
2022-08-26T20:14:26.440Z,4.57
2022-08-26T20:16:53.390Z,3.88
2022-08-26T20:19:38.572Z,3.95
2022-08-26T20:22:05.825Z,4.18
2022-08-26T20:24:33.497Z,4.30
2022-08-26T20:27:03.306Z,5.20
2022-08-26T20:29:32.702Z,4.95
2022-08-26T20:31:59.360Z,4.68
2022-08-26T20:34:26.879Z,4.13
2022-08-26T20:36:53.690Z,4.15
2022-08-26T20:39:21.415Z,4.53
2022-08-26T20:41:48.686Z,4.68
2022-08-26T20:44:16.734Z,3.95
2022-08-26T20:46:44.304Z,4.43
2022-08-26T20:49:11.358Z,5.97
2022-08-26T20:51:38.406Z,4.22
2022-08-26T20:54:05.984Z,4.38
2022-08-26T20:56:32.630Z,4.10
2022-08-26T20:58:59.987Z,3.97
2022-08-26T21:01:33.606Z,4.32
2022-08-26T21:04:02.550Z,4.07
2022-08-26T21:06:29.751Z,4.30
2022-08-26T21:08:57.070Z,4.45
2022-08-26T21:11:25.263Z,4.38
2022-08-26T21:14:16.114Z,3.85
2022-08-26T21:16:40.655Z,4.43
2022-08-26T21:19:10.656Z,4.10
2022-08-26T21:21:37.626Z,4.70
2022-08-26T21:24:04.749Z,4.43
2022-08-26T21:26:31.366Z,4.45
2022-08-26T21:28:57.924Z,4.60
2022-08-26T21:31:25.715Z,4.57
2022-08-26T21:33:52.964Z,4.07
2022-08-26T21:36:19.895Z,5.05
2022-08-26T21:38:46.943Z,4.47
2022-08-26T21:41:18.743Z,5.07
2022-08-26T21:43:46.269Z,4.82
2022-08-26T21:46:15.888Z,4.22
2022-08-26T21:48:48.746Z,4.25
2022-08-26T21:51:19.315Z,4.65
2022-08-26T21:53:46.050Z,4.43
2022-08-26T21:56:15.515Z,4.18
2022-08-26T21:58:42.488Z,3.85
2022-08-26T22:01:16.460Z,4.95
2022-08-26T22:03:46.882Z,6.35
2022-08-26T22:06:14.246Z,4.78
2022-08-26T22:08:40.799Z,4.65
2022-08-26T22:11:07.396Z,4.75
2022-08-26T22:13:37.019Z,4.85
2022-08-26T22:16:04.572Z,4.47
2022-08-26T22:18:31.765Z,4.70
2022-08-26T22:21:01.271Z,5.05
2022-08-26T22:23:28.202Z,4.80
2022-08-26T22:25:55.890Z,4.57
2022-08-26T22:28:23.263Z,5.43
2022-08-26T22:30:50.885Z,4.97
2022-08-26T22:33:18.067Z,5.40
2022-08-26T22:35:47.589Z,4.97
2022-08-26T22:38:14.633Z,4.25
2022-08-26T22:40:50.438Z,4.35
2022-08-26T22:43:18.837Z,4.97
2022-08-26T22:45:48.294Z,4.50
2022-08-26T22:48:17.945Z,4.28
2022-08-26T22:50:46.560Z,4.68
2022-08-26T22:53:14.188Z,4.10
2022-08-26T22:55:40.930Z,4.68
2022-08-26T22:58:08.033Z,4.65
2022-08-26T23:00:34.650Z,4.72
2022-08-26T23:03:02.976Z,5.10
2022-08-26T23:05:29.819Z,5.55
2022-08-26T23:07:56.973Z,5.10
2022-08-26T23:10:24.527Z,4.72
2022-08-26T23:12:52.479Z,5.30
2022-08-26T23:15:20.903Z,4.53
2022-08-26T23:17:48.318Z,5.00
2022-08-26T23:20:26.365Z,4.75
2022-08-26T23:22:53.563Z,4.72
2022-08-26T23:25:20.670Z,5.03
2022-08-26T23:27:47.278Z,5.03
2022-08-26T23:30:17.730Z,5.47
2022-08-26T23:32:44.482Z,4.50
2022-08-26T23:35:12.723Z,5.20
2022-08-26T23:37:44.272Z,7.72
2022-08-26T23:40:16.118Z,5.13
2022-08-26T23:42:44.070Z,4.57
2022-08-26T23:45:13.043Z,5.03
2022-08-26T23:47:41.228Z,5.38
2022-08-26T23:50:09.017Z,4.70
2022-08-26T23:52:54.494Z,5.32
2022-08-26T23:55:21.084Z,4.82
2022-08-26T23:57:47.684Z,4.75
